createdAt,value
2023-02-13T00:01:30.986Z,93573.72
2023-02-13T00:04:04.288Z,93563.94
2023-02-13T00:06:36.719Z,93566.50
2023-02-13T00:09:10.472Z,93564.19
2023-02-13T00:11:42.989Z,93565.69
2023-02-13T00:14:15.655Z,93569.91
2023-02-13T00:16:48.990Z,93567.78
2023-02-13T00:19:21.709Z,93563.66
2023-02-13T00:21:54.145Z,93562.06
2023-02-13T00:24:26.893Z,93553.94
2023-02-13T00:26:59.313Z,93571.22
2023-02-13T00:29:32.913Z,93566.72
2023-02-13T00:32:06.311Z,93568.06
2023-02-13T00:34:38.930Z,93563.13
2023-02-13T00:37:11.522Z,93563.69
2023-02-13T00:39:44.003Z,93573.28
2023-02-13T00:42:16.543Z,93571.09
2023-02-13T00:44:50.336Z,93568.88
2023-02-13T00:47:23.551Z,93572.69
2023-02-13T00:49:56.234Z,93578.84
2023-02-13T00:52:28.644Z,93579.81
2023-02-13T00:55:01.648Z,93575.41
2023-02-13T00:57:34.218Z,93583.06
2023-02-13T01:00:08.137Z,93584.06
2023-02-13T01:02:41.283Z,93589.97
2023-02-13T01:05:14.317Z,93593.56
2023-02-13T01:07:46.703Z,93581.13
2023-02-13T01:10:19.378Z,93593.19
2023-02-13T01:12:52.031Z,93590.47
2023-02-13T01:15:24.761Z,93579.38
2023-02-13T01:18:00.189Z,93588.09
2023-02-13T01:20:33.265Z,93586.34
2023-02-13T01:23:05.758Z,93578.34
2023-02-13T01:25:40.431Z,93595.06
2023-02-13T01:28:12.967Z,93597.44
2023-02-13T01:30:45.695Z,93594.59
2023-02-13T01:33:18.838Z,93592.31
2023-02-13T01:35:51.971Z,93595.69
2023-02-13T01:38:24.505Z,93596.47
2023-02-13T01:40:57.319Z,93601.06
2023-02-13T01:43:45.145Z,93597.09
2023-02-13T01:46:23.282Z,93599.28
2023-02-13T01:49:03.101Z,93598.84
2023-02-13T01:51:36.922Z,93602.47
2023-02-13T01:54:13.937Z,93596.22
2023-02-13T01:56:49.520Z,93595.06
2023-02-13T01:59:26.269Z,93600.19
2023-02-13T02:02:01.201Z,93600.19
2023-02-13T02:04:37.849Z,93604.22
2023-02-13T02:07:20.383Z,93607.13
2023-02-13T02:10:01.933Z,93603.66
2023-02-13T02:12:42.350Z,93601.38
2023-02-13T02:15:16.524Z,93604.75
2023-02-13T02:17:49.144Z,93604.75
2023-02-13T02:20:39.238Z,93606.50
2023-02-13T02:23:38.493Z,93601.09
2023-02-13T02:26:45.849Z,93600.94
2023-02-13T02:29:40.186Z,93603.59
2023-02-13T02:32:24.549Z,93608.31
2023-02-13T02:35:07.791Z,93612.47
2023-02-13T02:38:01.411Z,93598.56
2023-02-13T02:40:43.056Z,93607.47
2023-02-13T02:43:28.541Z,93614.09
2023-02-13T02:46:11.659Z,93617.34
2023-02-13T02:49:08.980Z,93615.69
2023-02-13T02:51:54.461Z,93628.88
2023-02-13T02:54:50.791Z,93622.28
2023-02-13T02:57:47.404Z,93624.94
2023-02-13T03:00:42.367Z,93631.78
2023-02-13T03:03:36.717Z,93628.91
2023-02-13T03:06:15.125Z,93631.34
2023-02-13T03:09:12.260Z,93605.81
2023-02-13T03:12:08.666Z,93628.63
2023-02-13T03:14:42.234Z,93629.72
2023-02-13T03:17:35.691Z,93628.09
2023-02-13T03:20:33.806Z,93629.25
2023-02-13T03:23:13.953Z,93630.66
2023-02-13T03:26:07.230Z,93628.81
2023-02-13T03:29:08.029Z,93622.03
2023-02-13T03:31:49.421Z,93616.28
2023-02-13T03:34:25.256Z,93604.88
2023-02-13T03:37:19.606Z,93613.19
2023-02-13T03:40:01.078Z,93630.41
2023-02-13T03:42:37.041Z,93630.16
2023-02-13T03:45:32.434Z,93640.63
2023-02-13T03:48:29.361Z,93634.56
2023-02-13T03:51:03.486Z,93632.50
2023-02-13T03:53:39.548Z,93624.41
2023-02-13T03:56:32.759Z,93626.63
2023-02-13T03:59:15.854Z,93628.75
2023-02-13T04:01:59.391Z,93619.50
2023-02-13T04:04:40.184Z,93628.75
2023-02-13T04:07:28.612Z,93624.06
2023-02-13T04:10:05.574Z,93623.91
2023-02-13T04:12:48.657Z,93630.66
2023-02-13T04:15:27.596Z,93637.44
2023-02-13T04:18:09.629Z,93633.41
2023-02-13T04:20:43.632Z,93632.44
2023-02-13T04:23:16.326Z,93653.31
2023-02-13T04:25:51.942Z,93638.25
2023-02-13T04:28:25.187Z,93644.34
2023-02-13T04:30:58.132Z,93646.91
2023-02-13T04:33:30.697Z,93651.81
2023-02-13T04:36:03.617Z,93650.50
2023-02-13T04:38:36.106Z,93645.22
2023-02-13T04:41:08.494Z,93644.50
2023-02-13T04:43:41.656Z,93644.06
2023-02-13T04:46:14.138Z,93640.09
2023-02-13T04:48:46.811Z,93642.91
2023-02-13T04:51:19.430Z,93634.00
2023-02-13T04:53:51.792Z,93637.53
2023-02-13T04:56:24.216Z,93642.13
2023-02-13T04:58:57.213Z,93637.63
2023-02-13T05:01:29.925Z,93639.22
2023-02-13T05:04:02.460Z,93647.50
2023-02-13T05:06:34.789Z,93647.31
2023-02-13T05:09:07.199Z,93656.41
2023-02-13T05:11:39.559Z,93661.09
2023-02-13T05:14:12.892Z,93663.25
2023-02-13T05:16:45.385Z,93664.34
2023-02-13T05:19:17.828Z,93667.84
2023-02-13T05:22:08.640Z,93670.94
2023-02-13T05:24:41.374Z,93663.19
2023-02-13T05:27:13.947Z,93668.66
2023-02-13T05:29:47.031Z,93671.66
2023-02-13T05:32:19.495Z,93668.06
2023-02-13T05:34:51.915Z,93675.19
2023-02-13T05:37:24.369Z,93668.31
2023-02-13T05:39:56.727Z,93671.81
2023-02-13T05:42:29.150Z,93668.91
2023-02-13T05:45:02.784Z,93668.91
2023-02-13T05:47:35.586Z,93670.34
2023-02-13T05:50:08.625Z,93678.44
2023-02-13T05:52:41.010Z,93657.72
2023-02-13T05:55:13.530Z,93677.47
2023-02-13T05:57:45.991Z,93682.94
2023-02-13T06:00:20.774Z,93677.47
2023-02-13T06:02:53.139Z,93683.47
2023-02-13T06:05:25.827Z,93686.22
2023-02-13T06:07:58.170Z,93687.53
2023-02-13T06:10:31.122Z,93685.16
2023-02-13T06:13:03.552Z,93689.44
2023-02-13T06:15:36.876Z,93696.06
2023-02-13T06:18:09.257Z,93690.00
2023-02-13T06:20:41.891Z,93690.44
2023-02-13T06:23:14.475Z,93693.97
2023-02-13T06:25:47.074Z,93691.31
2023-02-13T06:28:19.813Z,93691.56
2023-02-13T06:30:53.005Z,93691.56
2023-02-13T06:33:25.437Z,93698.53
2023-02-13T06:35:57.849Z,93696.25
2023-02-13T06:38:31.372Z,93698.47
2023-02-13T06:41:04.014Z,93701.72
2023-02-13T06:43:37.778Z,93703.56
2023-02-13T06:46:12.441Z,93698.28
2023-02-13T06:48:44.873Z,93694.59
2023-02-13T06:51:17.308Z,93699.88
2023-02-13T06:53:49.859Z,93700.66
2023-02-13T06:56:22.306Z,93697.38
2023-02-13T06:58:54.654Z,93701.56
2023-02-13T07:01:27.869Z,93700.91
2023-02-13T07:04:00.274Z,93695.47
2023-02-13T07:06:33.582Z,93701.34
2023-02-13T07:09:06.174Z,93699.94
2023-02-13T07:11:39.110Z,93698.09
2023-02-13T07:14:11.465Z,93696.19
2023-02-13T07:16:44.580Z,93686.53
2023-02-13T07:19:17.140Z,93692.19
2023-02-13T07:21:49.929Z,93693.63
2023-02-13T07:24:22.504Z,93699.28
2023-02-13T07:26:55.130Z,93700.25
2023-02-13T07:29:27.771Z,93709.22
2023-02-13T07:32:01.650Z,93701.03
2023-02-13T07:34:34.269Z,93703.13
2023-02-13T07:37:06.761Z,93708.41
2023-02-13T07:39:39.409Z,93699.66
2023-02-13T07:42:11.986Z,93712.13
2023-02-13T07:44:44.510Z,93701.50
2023-02-13T07:47:19.780Z,93707.63
2023-02-13T07:49:54.146Z,93705.75
2023-02-13T07:52:26.594Z,93709.09
2023-02-13T07:54:59.075Z,93704.59
2023-02-13T07:57:31.622Z,93705.50
2023-02-13T08:00:05.328Z,93707.91
2023-02-13T08:02:45.077Z,93696.75
2023-02-13T08:05:17.902Z,93703.38
2023-02-13T08:07:50.269Z,93704.06
2023-02-13T08:10:41.557Z,93707.53
2023-02-13T08:13:15.560Z,93712.31
2023-02-13T08:15:48.572Z,93708.59
2023-02-13T08:18:21.731Z,93705.91
2023-02-13T08:20:54.134Z,93711.16
2023-02-13T08:23:26.597Z,93704.56
2023-02-13T08:26:01.315Z,93705.25
2023-02-13T08:28:35.318Z,93701.53
2023-02-13T08:31:11.854Z,93706.50
2023-02-13T08:33:45.104Z,93710.47
2023-02-13T08:36:18.952Z,93702.91
2023-02-13T08:38:51.328Z,93712.84
2023-02-13T08:41:23.821Z,93709.31
2023-02-13T08:43:56.208Z,93707.94
2023-02-13T08:46:28.853Z,93699.69
2023-02-13T08:49:01.904Z,93706.63
2023-02-13T08:51:34.465Z,93711.19
2023-02-13T08:54:06.836Z,93703.88
2023-02-13T08:56:39.431Z,93717.13
2023-02-13T08:59:11.885Z,93712.00
2023-02-13T09:01:44.295Z,93715.56
2023-02-13T09:04:17.930Z,93708.91
2023-02-13T09:06:50.603Z,93714.25
2023-02-13T09:09:23.187Z,93713.47
2023-02-13T09:11:57.297Z,93712.69
2023-02-13T09:14:29.847Z,93700.88
2023-02-13T09:17:02.384Z,93709.16
2023-02-13T09:19:35.710Z,93708.59
2023-02-13T09:22:08.080Z,93705.44
2023-02-13T09:24:40.720Z,93705.28
2023-02-13T09:27:13.389Z,93692.38
2023-02-13T09:29:46.405Z,93695.94
2023-02-13T09:32:18.849Z,93705.22
2023-02-13T09:34:51.932Z,93694.34
2023-02-13T09:37:24.457Z,93698.50
2023-02-13T09:39:56.848Z,93686.81
2023-02-13T09:42:32.877Z,93687.38
2023-02-13T09:45:07.897Z,93687.56
2023-02-13T09:47:42.512Z,93683.19
2023-02-13T09:50:21.693Z,93684.47
2023-02-13T09:52:56.610Z,93664.78
2023-02-13T09:55:46.636Z,93681.19
2023-02-13T09:58:27.828Z,93677.72
2023-02-13T10:01:04.312Z,93678.50
2023-02-13T10:03:44.311Z,93671.88
2023-02-13T10:06:24.891Z,93665.19
2023-02-13T10:09:10.008Z,93661.97
2023-02-13T10:12:05.764Z,93657.53
2023-02-13T10:14:47.489Z,93656.06
2023-02-13T10:17:26.526Z,93652.63
2023-02-13T10:20:03.275Z,93649.56
2023-02-13T10:22:41.156Z,93647.66
2023-02-13T10:25:20.974Z,93636.22
2023-02-13T10:27:57.990Z,93649.06
2023-02-13T10:30:32.580Z,93636.06
2023-02-13T10:33:21.043Z,93638.91
2023-02-13T10:35:59.162Z,93633.50
2023-02-13T10:38:35.470Z,93635.69
2023-02-13T10:41:31.249Z,93632.75
2023-02-13T10:44:19.316Z,93622.56
2023-02-13T10:47:01.464Z,93620.19
2023-02-13T10:49:47.481Z,93620.34
2023-02-13T10:52:32.878Z,93617.31
2023-02-13T10:55:28.882Z,93611.59
2023-02-13T10:58:12.673Z,93609.44
2023-02-13T11:00:49.856Z,93609.44
2023-02-13T11:03:24.441Z,93606.69
2023-02-13T11:05:59.253Z,93601.88
2023-02-13T11:08:34.742Z,93605.97
2023-02-13T11:11:29.283Z,93603.53
2023-02-13T11:14:11.084Z,93582.44
2023-02-13T11:16:53.335Z,93593.75
2023-02-13T11:19:30.506Z,93586.41
2023-02-13T11:22:06.591Z,93588.94
2023-02-13T11:24:41.273Z,93590.69
2023-02-13T11:27:14.451Z,93583.91
2023-02-13T11:29:55.429Z,93577.03
2023-02-13T11:32:30.029Z,93571.84
2023-02-13T11:35:27.107Z,93569.53
2023-02-13T11:38:20.194Z,93556.94
2023-02-13T11:41:06.886Z,93562.94
2023-02-13T11:43:47.814Z,93562.31
2023-02-13T11:46:22.237Z,93558.06
2023-02-13T11:49:01.442Z,93548.50
2023-02-13T11:51:40.137Z,93543.56
2023-02-13T11:54:30.484Z,93537.59
2023-02-13T11:57:16.861Z,93535.34
2023-02-13T11:59:52.186Z,93525.66
2023-02-13T12:02:26.571Z,93532.19
2023-02-13T12:05:17.611Z,93520.03
2023-02-13T12:07:50.890Z,93519.81
2023-02-13T12:10:26.801Z,93512.47
2023-02-13T12:13:06.104Z,93503.94
2023-02-13T12:15:40.166Z,93514.28
2023-02-13T12:18:18.889Z,93506.63
2023-02-13T12:20:59.362Z,93501.19
2023-02-13T12:23:45.521Z,93499.88
2023-02-13T12:26:30.061Z,93505.84
2023-02-13T12:29:28.865Z,93500.38
2023-02-13T12:32:15.218Z,93504.81
2023-02-13T12:35:21.250Z,93496.25
2023-02-13T12:38:01.341Z,93503.09
2023-02-13T12:41:07.665Z,93489.47
2023-02-13T12:44:21.533Z,93494.31
2023-02-13T12:47:07.334Z,93480.63
2023-02-13T12:49:59.801Z,93478.19
2023-02-13T12:52:45.955Z,93480.09
2023-02-13T12:55:47.542Z,93474.19
2023-02-13T12:58:40.340Z,93475.94
2023-02-13T13:01:22.396Z,93467.19
2023-02-13T13:04:08.986Z,93464.56
2023-02-13T13:06:56.298Z,93467.88
2023-02-13T13:09:59.553Z,93459.69
2023-02-13T13:12:45.633Z,93446.81
2023-02-13T13:15:31.418Z,93455.25
2023-02-13T13:18:18.038Z,93460.19
2023-02-13T13:21:01.032Z,93447.88
2023-02-13T13:23:37.178Z,93452.75
2023-02-13T13:26:20.694Z,93446.06
2023-02-13T13:28:55.607Z,93449.38
2023-02-13T13:31:28.491Z,93444.59
2023-02-13T13:34:11.760Z,93444.28
2023-02-13T13:36:48.594Z,93445.75
2023-02-13T13:39:36.971Z,93448.25
2023-02-13T13:42:16.364Z,93438.84
2023-02-13T13:45:08.435Z,93446.88
2023-02-13T13:47:51.959Z,93446.00
2023-02-13T13:50:26.241Z,93429.72
2023-02-13T13:53:11.004Z,93432.13
2023-02-13T13:56:07.885Z,93446.69
2023-02-13T13:58:42.985Z,93442.47
2023-02-13T14:01:17.607Z,93435.19
2023-02-13T14:03:52.661Z,93436.91
2023-02-13T14:06:27.481Z,93434.53
2023-02-13T14:09:07.914Z,93449.25
2023-02-13T14:11:45.833Z,93438.59
2023-02-13T14:14:52.716Z,93433.84
2023-02-13T14:17:53.868Z,93427.09
2023-02-13T14:20:34.709Z,93428.94
2023-02-13T14:23:33.480Z,93427.25
2023-02-13T14:26:22.100Z,93419.88
2023-02-13T14:29:05.113Z,93417.38
2023-02-13T14:31:40.489Z,93416.47
2023-02-13T14:34:28.307Z,93418.03
2023-02-13T14:37:23.788Z,93419.28
2023-02-13T14:40:41.213Z,93416.59
2023-02-13T14:43:32.963Z,93416.94
2023-02-13T14:46:24.426Z,93418.84
2023-02-13T14:49:01.816Z,93410.22
2023-02-13T14:51:38.065Z,93420.88
2023-02-13T14:54:20.513Z,93412.56
2023-02-13T14:56:59.161Z,93412.22
2023-02-13T14:59:36.808Z,93409.84
2023-02-13T15:02:18.545Z,93415.34
2023-02-13T15:04:56.944Z,93419.28
2023-02-13T15:07:34.090Z,93410.75
2023-02-13T15:10:33.592Z,93410.75
2023-02-13T15:13:13.456Z,93400.75
2023-02-13T15:15:53.050Z,93414.91
2023-02-13T15:18:28.025Z,93417.63
2023-02-13T15:21:02.296Z,93415.81
2023-02-13T15:23:34.766Z,93419.09
2023-02-13T15:26:08.335Z,93413.59
2023-02-13T15:28:40.884Z,93417.31
2023-02-13T15:31:24.000Z,93425.72
2023-02-13T15:33:58.108Z,93422.81
2023-02-13T15:36:35.549Z,93400.53
2023-02-13T15:39:17.992Z,93422.47
2023-02-13T15:41:53.067Z,93422.47
2023-02-13T15:44:28.734Z,93421.13
2023-02-13T15:47:07.241Z,93428.22
2023-02-13T15:49:44.968Z,93431.91
2023-02-13T15:52:21.405Z,93432.00
2023-02-13T15:54:55.585Z,93430.66
2023-02-13T15:57:28.592Z,93435.34
2023-02-13T16:00:02.646Z,93441.53
2023-02-13T16:02:47.216Z,93428.69
2023-02-13T16:05:37.472Z,93429.59
2023-02-13T16:08:27.747Z,93426.88
2023-02-13T16:11:17.633Z,93438.53
2023-02-13T16:14:16.921Z,93438.28
2023-02-13T16:16:52.601Z,93437.38
2023-02-13T16:19:31.098Z,93442.69
2023-02-13T16:22:20.078Z,93437.50
2023-02-13T16:24:54.309Z,93436.66
2023-02-13T16:27:28.027Z,93445.00
2023-02-13T16:30:03.569Z,93446.59
2023-02-13T16:32:38.140Z,93449.03
2023-02-13T16:35:37.197Z,93440.94
2023-02-13T16:38:29.779Z,93448.16
2023-02-13T16:41:05.246Z,93447.09
2023-02-13T16:43:44.508Z,93454.75
2023-02-13T16:46:32.637Z,93455.06
2023-02-13T16:49:23.615Z,93449.09
2023-02-13T16:52:01.009Z,93445.91
2023-02-13T16:54:46.014Z,93444.53
2023-02-13T16:57:22.369Z,93433.78
2023-02-13T17:00:03.614Z,93444.94
2023-02-13T17:02:37.481Z,93441.16
2023-02-13T17:05:20.073Z,93446.22
2023-02-13T17:07:56.404Z,93440.72
2023-02-13T17:10:32.880Z,93438.78
2023-02-13T17:13:14.312Z,93442.13
2023-02-13T17:15:48.020Z,93441.16
2023-02-13T17:18:20.691Z,93446.06
2023-02-13T17:20:53.849Z,93444.28
2023-02-13T17:23:26.998Z,93451.66
2023-02-13T17:25:59.423Z,93448.69
2023-02-13T17:28:31.970Z,93449.75
2023-02-13T17:31:09.824Z,93449.53
2023-02-13T17:33:44.276Z,93457.03
2023-02-13T17:36:16.643Z,93450.53
2023-02-13T17:38:49.899Z,93454.63
2023-02-13T17:41:22.539Z,93462.75
2023-02-13T17:43:54.929Z,93453.47
2023-02-13T17:46:27.383Z,93452.69
2023-02-13T17:48:59.881Z,93451.91
2023-02-13T17:51:32.627Z,93452.13
2023-02-13T17:54:05.723Z,93457.28
2023-02-13T17:56:38.118Z,93449.78
2023-02-13T17:59:10.474Z,93461.72
2023-02-13T18:01:42.891Z,93450.06
2023-02-13T18:04:15.714Z,93446.00
2023-02-13T18:06:51.698Z,93440.28
2023-02-13T18:09:24.765Z,93442.84
2023-02-13T18:12:05.428Z,93439.88
2023-02-13T18:14:37.916Z,93434.75
2023-02-13T18:17:10.760Z,93444.03
2023-02-13T18:19:43.508Z,93440.69
2023-02-13T18:22:16.107Z,93434.56
2023-02-13T18:24:49.404Z,93440.13
2023-02-13T18:27:22.526Z,93442.28
2023-02-13T18:29:55.319Z,93448.84
2023-02-13T18:32:28.096Z,93442.72
2023-02-13T18:35:01.796Z,93448.66
2023-02-13T18:37:34.408Z,93445.31
2023-02-13T18:40:08.819Z,93438.22
2023-02-13T18:42:41.434Z,93439.22
2023-02-13T18:45:13.802Z,93446.91
2023-02-13T18:47:46.210Z,93444.16
2023-02-13T18:50:20.028Z,93438.59
2023-02-13T18:52:52.412Z,93437.84
2023-02-13T18:55:25.888Z,93442.16
2023-02-13T18:57:58.740Z,93449.13
2023-02-13T19:00:31.196Z,93448.72
2023-02-13T19:03:03.626Z,93446.34
2023-02-13T19:05:40.337Z,93447.91
2023-02-13T19:08:14.071Z,93446.34
2023-02-13T19:10:47.161Z,93456.44
2023-02-13T19:13:19.687Z,93455.03
2023-02-13T19:15:52.204Z,93441.78
2023-02-13T19:18:24.698Z,93452.44
2023-02-13T19:20:59.469Z,93451.66
2023-02-13T19:23:32.115Z,93447.34
2023-02-13T19:26:06.333Z,93454.84
2023-02-13T19:28:39.022Z,93459.38
2023-02-13T19:31:14.717Z,93458.78
2023-02-13T19:33:48.655Z,93455.22
2023-02-13T19:36:23.460Z,93456.78
2023-02-13T19:38:57.739Z,93463.72
2023-02-13T19:41:32.259Z,93455.22
2023-02-13T19:44:04.892Z,93449.72
2023-02-13T19:46:37.782Z,93454.84
2023-02-13T19:49:10.251Z,93451.06
2023-02-13T19:51:45.407Z,93454.22
2023-02-13T19:54:17.760Z,93453.66
2023-02-13T19:56:50.961Z,93445.94
2023-02-13T19:59:23.278Z,93450.28
2023-02-13T20:01:55.721Z,93451.28
2023-02-13T20:04:28.113Z,93443.16
2023-02-13T20:07:01.164Z,93448.88
2023-02-13T20:09:34.781Z,93450.25
2023-02-13T20:12:07.922Z,93446.28
2023-02-13T20:14:40.326Z,93432.50
2023-02-13T20:17:12.725Z,93440.59
2023-02-13T20:19:46.892Z,93430.34
2023-02-13T20:22:19.382Z,93439.03
2023-02-13T20:24:54.627Z,93439.81
2023-02-13T20:27:27.781Z,93432.63
2023-02-13T20:30:06.589Z,93431.44
2023-02-13T20:32:41.033Z,93414.28
2023-02-13T20:35:13.299Z,93417.25
2023-02-13T20:37:45.738Z,93423.00
2023-02-13T20:40:18.257Z,93408.38
2023-02-13T20:42:51.298Z,93412.94
2023-02-13T20:45:23.912Z,93407.22
2023-02-13T20:47:56.327Z,93405.66
2023-02-13T20:50:28.896Z,93407.38
2023-02-13T20:53:01.354Z,93396.56
2023-02-13T20:55:33.744Z,93401.69
2023-02-13T20:58:06.898Z,93397.53
2023-02-13T21:00:39.324Z,93406.81
2023-02-13T21:03:11.767Z,93400.13
2023-02-13T21:05:44.848Z,93401.13
2023-02-13T21:08:17.330Z,93394.59
2023-02-13T21:10:49.737Z,93392.41
2023-02-13T21:13:22.766Z,93384.88
2023-02-13T21:16:02.465Z,93387.69
2023-02-13T21:18:34.687Z,93382.97
2023-02-13T21:21:09.163Z,93381.38
2023-02-13T21:23:41.652Z,93379.41
2023-02-13T21:26:16.716Z,93378.97
2023-02-13T21:28:50.580Z,93376.44
2023-02-13T21:31:27.158Z,93373.88
2023-02-13T21:34:02.349Z,93379.22
2023-02-13T21:36:36.475Z,93378.03
2023-02-13T21:39:10.616Z,93384.94
2023-02-13T21:41:44.706Z,93388.31
2023-02-13T21:44:17.904Z,93379.44
2023-02-13T21:46:50.552Z,93374.88
2023-02-13T21:49:24.392Z,93376.06
2023-02-13T21:51:56.897Z,93379.03
2023-02-13T21:54:29.261Z,93373.31
2023-02-13T21:57:02.003Z,93371.13
2023-02-13T21:59:35.072Z,93372.13
2023-02-13T22:02:07.576Z,93362.84
2023-02-13T22:04:40.745Z,93364.59
2023-02-13T22:07:13.086Z,93368.56
2023-02-13T22:09:45.463Z,93363.41
2023-02-13T22:12:17.824Z,93361.28
2023-02-13T22:14:51.058Z,93357.09
2023-02-13T22:17:23.601Z,93358.09
2023-02-13T22:19:56.021Z,93348.03
2023-02-13T22:22:28.319Z,93350.00
2023-02-13T22:25:01.275Z,93350.97
2023-02-13T22:27:34.149Z,93346.63
2023-02-13T22:30:08.427Z,93344.03
2023-02-13T22:32:41.499Z,93339.53
2023-02-13T22:35:13.888Z,93344.03
2023-02-13T22:37:46.281Z,93349.38
2023-02-13T22:40:18.999Z,93343.81
2023-02-13T22:42:51.941Z,93339.69
2023-02-13T22:45:25.154Z,93339.09
2023-02-13T22:47:57.892Z,93333.97
2023-02-13T22:50:30.816Z,93335.72
2023-02-13T22:53:03.372Z,93329.41
2023-02-13T22:55:35.737Z,93330.03
2023-02-13T22:58:08.054Z,93330.63
2023-02-13T23:00:41.246Z,93329.84
2023-02-13T23:03:14.510Z,93323.53
2023-02-13T23:05:47.079Z,93324.31
2023-02-13T23:08:19.592Z,93313.31
2023-02-13T23:11:06.704Z,93316.66
2023-02-13T23:13:39.073Z,93310.72
2023-02-13T23:16:13.432Z,93310.09
2023-02-13T23:18:50.849Z,93304.56
2023-02-13T23:21:23.734Z,93318.78
2023-02-13T23:23:56.102Z,93315.81
2023-02-13T23:26:28.529Z,93320.94
2023-02-13T23:29:00.893Z,93322.88
2023-02-13T23:31:33.990Z,93311.84
2023-02-13T23:34:06.503Z,93317.00
2023-02-13T23:36:38.964Z,93310.28
2023-02-13T23:39:11.372Z,93318.03
2023-02-13T23:41:43.791Z,93315.47
2023-02-13T23:44:16.211Z,93312.31
2023-02-13T23:46:49.376Z,93312.09
2023-02-13T23:49:22.058Z,93311.91
2023-02-13T23:51:54.597Z,93310.31
2023-02-13T23:54:27.079Z,93315.06
2023-02-13T23:56:59.800Z,93304.63
2023-02-13T23:59:32.847Z,93313.91
